Time;durP1;ratioP1;P1;durP2;ratioP2;P2;SDS_P1;SDS_P2;PMS_P1;PMS_P2;Temp;Humidity;BMP_temperature;BMP_pressure;BME280_temperature;BME280_humidity;BME280_pressure;Samples;Min_cycle;Max_cycle;Signal;HPM_P1;HPM_P2
2022/10/12 00:00:31;;;;;;;11.52;6.30;;;;;;;;;;5136179;27;20454;-75
2022/10/12 00:03:17;;;;;;;10.93;6.65;;;;;;;;;;5135668;27;20023;-74
2022/10/12 00:06:04;;;;;;;10.45;6.00;;;;;;;;;;5135551;27;20019;-75
2022/10/12 00:08:51;;;;;;;9.35;6.00;;;;;;;;;;5135034;27;20015;-73
2022/10/12 00:11:39;;;;;;;8.52;6.18;;;;;;;;;;5134926;27;20015;-72
2022/10/12 00:14:25;;;;;;;9.40;5.60;;;;;;;;;;5134605;27;20020;-73
2022/10/12 00:17:10;;;;;;;9.93;6.13;;;;;;;;;;5135298;27;20447;-74
2022/10/12 00:19:56;;;;;;;11.02;6.30;;;;;;;;;;5134140;27;20031;-74
2022/10/12 00:22:41;;;;;;;8.57;5.75;;;;;;;;;;5135959;27;20012;-75
2022/10/12 00:25:27;;;;;;;8.93;5.55;;;;;;;;;;5120140;27;20436;-74
2022/10/12 00:28:12;;;;;;;8.05;5.00;;;;;;;;;;5135263;27;20023;-74
2022/10/12 00:30:58;;;;;;;6.53;4.65;;;;;;;;;;5134036;27;20033;-74
2022/10/12 00:33:44;;;;;;;7.18;5.15;;;;;;;;;;5134343;27;20117;-74
2022/10/12 00:36:32;;;;;;;8.18;5.50;;;;;;;;;;5133848;27;20016;-73
2022/10/12 00:39:18;;;;;;;7.38;5.10;;;;;;;;;;5135420;27;20029;-73
2022/10/12 00:42:03;;;;;;;6.22;4.82;;;;;;;;;;5120136;27;20019;-74
2022/10/12 00:44:50;;;;;;;6.47;4.85;;;;;;;;;;5135056;27;20019;-73
2022/10/12 00:47:37;;;;;;;7.95;5.25;;;;;;;;;;5133964;27;20451;-73
2022/10/12 00:50:25;;;;;;;7.05;4.93;;;;;;;;;;5134146;27;20426;-73
2022/10/12 00:53:13;;;;;;;6.57;5.03;;;;;;;;;;5134849;27;20058;-73
2022/10/12 00:56:00;;;;;;;7.20;4.97;;;;;;;;;;5133269;27;20387;-73
2022/10/12 00:58:47;;;;;;;9.63;5.30;;;;;;;;;;5134880;27;20362;-74
2022/10/12 01:01:34;;;;;;;8.02;5.53;;;;;;;;;;5133870;27;20034;-73
2022/10/12 01:04:20;;;;;;;7.97;5.70;;;;;;;;;;5133411;27;20439;-74
2022/10/12 01:07:06;;;;;;;9.25;5.28;;;;;;;;;;5134257;27;20039;-74
2022/10/12 01:09:52;;;;;;;9.50;6.15;;;;;;;;;;5119010;27;20038;-74
2022/10/12 01:12:38;;;;;;;10.77;5.97;;;;;;;;;;5135001;27;20031;-72
2022/10/12 01:15:27;;;;;;;9.27;6.10;;;;;;;;;;5133596;27;20033;-74
2022/10/12 01:18:19;;;;;;;10.10;6.20;;;;;;;;;;5134914;27;20027;-74
2022/10/12 01:21:21;;;;;;;13.68;8.07;;;;;;;;;;5119667;28;20020;-74
2022/10/12 01:24:10;;;;;;;13.55;8.15;;;;;;;;;;5119392;28;20022;-73
2022/10/12 01:27:00;;;;;;;14.20;9.25;;;;;;;;;;5134648;28;20443;-74
2022/10/12 01:29:52;;;;;;;17.15;8.60;;;;;;;;;;5134160;28;20019;-73
2022/10/12 01:32:56;;;;;;;16.00;8.80;;;;;;;;;;5134448;28;20091;-74
2022/10/12 01:35:41;;;;;;;13.73;8.30;;;;;;;;;;5134778;28;20054;-74
2022/10/12 01:38:39;;;;;;;14.25;9.27;;;;;;;;;;5119381;28;20019;-74
2022/10/12 01:41:28;;;;;;;13.32;9.55;;;;;;;;;;5119090;28;20091;-74
2022/10/12 01:44:20;;;;;;;15.27;9.07;;;;;;;;;;5119822;28;20462;-74
2022/10/12 01:47:06;;;;;;;15.32;9.23;;;;;;;;;;5119847;28;20462;-75
2022/10/12 01:49:52;;;;;;;12.55;8.98;;;;;;;;;;5134326;28;20057;-74
2022/10/12 01:52:56;;;;;;;12.82;9.00;;;;;;;;;;5133897;28;20027;-74
2022/10/12 01:55:48;;;;;;;13.75;8.55;;;;;;;;;;5133804;28;20053;-73
2022/10/12 01:58:33;;;;;;;15.48;8.88;;;;;;;;;;5134576;28;20072;-73
2022/10/12 02:01:22;;;;;;;13.38;9.23;;;;;;;;;;5119072;28;20110;-73
2022/10/12 02:04:17;;;;;;;18.35;11.23;;;;;;;;;;5134218;28;20450;-73
2022/10/12 02:07:07;;;;;;;20.02;10.85;;;;;;;;;;5137573;27;20102;-73
2022/10/12 02:09:56;;;;;;;20.15;10.73;;;;;;;;;;5123044;27;20473;-74
2022/10/12 02:12:42;;;;;;;19.85;11.57;;;;;;;;;;5137982;27;20029;-74
2022/10/12 02:15:29;;;;;;;19.88;11.35;;;;;;;;;;5137902;27;20027;-73
2022/10/12 02:18:17;;;;;;;18.90;10.10;;;;;;;;;;5137012;27;20023;-74
2022/10/12 02:21:02;;;;;;;17.48;10.95;;;;;;;;;;5138592;27;20102;-74
2022/10/12 02:23:49;;;;;;;15.73;11.20;;;;;;;;;;5137554;27;20023;-73
2022/10/12 02:26:36;;;;;;;19.65;11.75;;;;;;;;;;5138116;27;20015;-74
2022/10/12 02:29:25;;;;;;;16.77;11.32;;;;;;;;;;5137802;27;20102;-74
2022/10/12 02:32:11;;;;;;;16.73;11.20;;;;;;;;;;5136727;27;20023;-74
2022/10/12 02:35:05;;;;;;;18.08;10.88;;;;;;;;;;5137016;27;20120;-74
2022/10/12 02:38:03;;;;;;;23.95;11.43;;;;;;;;;;5137589;27;20030;-75
2022/10/12 02:41:12;;;;;;;18.75;10.95;;;;;;;;;;5137142;27;20015;-72
2022/10/12 02:43:59;;;;;;;18.95;11.07;;;;;;;;;;5122444;27;20015;-73
2022/10/12 02:46:46;;;;;;;18.33;10.65;;;;;;;;;;5136280;27;20026;-73
2022/10/12 02:49:33;;;;;;;17.50;10.73;;;;;;;;;;5136802;27;20458;-74
2022/10/12 02:52:18;;;;;;;15.88;10.50;;;;;;;;;;5122113;27;20049;-74
2022/10/12 02:55:04;;;;;;;17.55;10.73;;;;;;;;;;5136076;27;20175;-73
2022/10/12 02:57:50;;;;;;;18.08;11.35;;;;;;;;;;5137077;27;20023;-73
2022/10/12 03:00:35;;;;;;;22.38;11.63;;;;;;;;;;5136600;27;20007;-75
2022/10/12 03:03:21;;;;;;;20.40;11.52;;;;;;;;;;5136350;27;20096;-74
2022/10/12 03:06:06;;;;;;;22.17;12.20;;;;;;;;;;5137594;27;20030;-74
2022/10/12 03:08:55;;;;;;;18.85;11.07;;;;;;;;;;5137099;27;20499;-74
2022/10/12 03:11:44;;;;;;;18.05;10.70;;;;;;;;;;5136864;27;20352;-73
2022/10/12 03:14:31;;;;;;;15.93;11.00;;;;;;;;;;5136208;27;20413;-73
2022/10/12 03:17:17;;;;;;;14.93;10.30;;;;;;;;;;5136149;27;20023;-74
2022/10/12 03:20:03;;;;;;;14.95;10.65;;;;;;;;;;5135836;27;20022;-73
2022/10/12 03:22:48;;;;;;;18.48;11.10;;;;;;;;;;5135712;27;20088;-73
2022/10/12 03:25:34;;;;;;;13.82;10.45;;;;;;;;;;5136512;27;20029;-74
2022/10/12 03:28:20;;;;;;;17.95;10.52;;;;;;;;;;5135954;27;20019;-73
2022/10/12 03:31:05;;;;;;;19.80;10.60;;;;;;;;;;5135818;27;20019;-73
2022/10/12 03:33:51;;;;;;;17.05;10.70;;;;;;;;;;5136325;27;20026;-74
2022/10/12 03:36:36;;;;;;;17.45;10.95;;;;;;;;;;5135668;27;20114;-74
2022/10/12 03:39:22;;;;;;;13.63;9.48;;;;;;;;;;5136361;27;20019;-73
2022/10/12 03:42:08;;;;;;;16.25;10.20;;;;;;;;;;5135048;27;20118;-74
2022/10/12 03:44:53;;;;;;;17.23;10.05;;;;;;;;;;5135278;27;20030;-74
2022/10/12 03:47:39;;;;;;;17.98;10.85;;;;;;;;;;5135592;27;20467;-74
2022/10/12 03:50:24;;;;;;;19.02;10.23;;;;;;;;;;5135192;27;20495;-73
2022/10/12 03:53:10;;;;;;;17.95;10.40;;;;;;;;;;5135639;27;20023;-74
2022/10/12 03:55:55;;;;;;;17.90;11.00;;;;;;;;;;5134989;27;20050;-74
2022/10/12 03:58:41;;;;;;;17.92;10.40;;;;;;;;;;5134364;27;20031;-74
2022/10/12 04:01:27;;;;;;;17.50;10.80;;;;;;;;;;5135425;27;20340;-73
2022/10/12 04:04:12;;;;;;;18.23;10.43;;;;;;;;;;5135040;27;20351;-73
2022/10/12 04:06:58;;;;;;;16.42;10.20;;;;;;;;;;5120330;27;20038;-74
2022/10/12 04:09:43;;;;;;;17.23;11.20;;;;;;;;;;5120352;27;20031;-73
2022/10/12 04:12:29;;;;;;;20.95;11.20;;;;;;;;;;5121122;27;20034;-73
2022/10/12 04:15:16;;;;;;;14.00;10.50;;;;;;;;;;5120929;27;20042;-73
2022/10/12 04:18:02;;;;;;;18.45;11.07;;;;;;;;;;5120167;27;20106;-73
2022/10/12 04:20:48;;;;;;;18.58;11.70;;;;;;;;;;5135475;27;20034;-73
2022/10/12 04:23:33;;;;;;;19.55;11.45;;;;;;;;;;5134472;27;20447;-73
2022/10/12 04:26:19;;;;;;;18.80;11.68;;;;;;;;;;5119938;27;20027;-73
2022/10/12 04:29:05;;;;;;;17.20;12.10;;;;;;;;;;5134111;27;20019;-74
2022/10/12 04:31:50;;;;;;;20.73;11.55;;;;;;;;;;5134515;27;20015;-73
2022/10/12 04:34:36;;;;;;;16.60;11.60;;;;;;;;;;5134602;27;20023;-74
2022/10/12 04:37:21;;;;;;;16.98;11.23;;;;;;;;;;5134656;27;20030;-72
2022/10/12 04:40:07;;;;;;;19.92;12.32;;;;;;;;;;5134330;27;20015;-73
2022/10/12 04:42:54;;;;;;;19.88;11.80;;;;;;;;;;5134647;27;20027;-73
2022/10/12 04:45:40;;;;;;;20.33;12.27;;;;;;;;;;5134681;27;20019;-73
2022/10/12 04:48:26;;;;;;;21.85;12.63;;;;;;;;;;5120827;27;20023;-74
2022/10/12 04:51:11;;;;;;;19.25;12.73;;;;;;;;;;5120065;27;20106;-72
2022/10/12 04:53:57;;;;;;;21.85;12.98;;;;;;;;;;5134364;27;20034;-73
2022/10/12 04:56:42;;;;;;;22.50;12.82;;;;;;;;;;5134551;27;20023;-74
2022/10/12 04:59:29;;;;;;;22.45;13.48;;;;;;;;;;5120727;27;20054;-74
2022/10/12 05:02:15;;;;;;;24.75;14.52;;;;;;;;;;5134296;27;20015;-73
2022/10/12 05:05:01;;;;;;;27.60;13.65;;;;;;;;;;5133454;27;20076;-73
2022/10/12 05:07:46;;;;;;;23.67;14.43;;;;;;;;;;5133985;27;20506;-73
2022/10/12 05:10:32;;;;;;;27.30;14.43;;;;;;;;;;5119305;27;20358;-74
2022/10/12 05:13:18;;;;;;;27.17;14.05;;;;;;;;;;5134173;27;20442;-73
2022/10/12 05:16:03;;;;;;;23.58;14.07;;;;;;;;;;5134940;27;20035;-73
2022/10/12 05:18:49;;;;;;;24.05;13.98;;;;;;;;;;5133253;27;20027;-73
2022/10/12 05:21:34;;;;;;;24.35;13.68;;;;;;;;;;5120090;28;20416;-74
2022/10/12 05:24:20;;;;;;;23.65;13.93;;;;;;;;;;5133473;28;20355;-73
2022/10/12 05:27:06;;;;;;;24.90;14.27;;;;;;;;;;5134203;28;20075;-72
2022/10/12 05:29:51;;;;;;;21.42;14.70;;;;;;;;;;5119693;28;20030;-73
2022/10/12 05:32:37;;;;;;;20.73;13.48;;;;;;;;;;5134258;28;20098;-74
2022/10/12 05:35:23;;;;;;;21.42;13.45;;;;;;;;;;5119711;28;20110;-74
2022/10/12 05:38:08;;;;;;;24.02;14.05;;;;;;;;;;5133402;28;20023;-74
2022/10/12 05:40:54;;;;;;;20.38;14.27;;;;;;;;;;5121227;27;20027;-74
2022/10/12 05:43:39;;;;;;;22.73;14.10;;;;;;;;;;5138581;27;20098;-73
2022/10/12 05:46:25;;;;;;;28.65;14.80;;;;;;;;;;5138606;27;20024;-74
2022/10/12 05:49:11;;;;;;;22.73;14.95;;;;;;;;;;5138087;27;20034;-72
2022/10/12 05:51:56;;;;;;;27.05;14.93;;;;;;;;;;5138717;27;20011;-74
2022/10/12 05:54:42;;;;;;;25.45;15.88;;;;;;;;;;5123100;27;20055;-73
2022/10/12 05:57:27;;;;;;;29.20;15.52;;;;;;;;;;5123745;27;20027;-72
2022/10/12 06:00:13;;;;;;;25.52;15.13;;;;;;;;;;5123484;27;20347;-72
2022/10/12 06:02:58;;;;;;;21.60;14.13;;;;;;;;;;5138046;27;20038;-72
2022/10/12 06:05:44;;;;;;;21.48;13.75;;;;;;;;;;5137944;27;20062;-72
2022/10/12 06:08:30;;;;;;;21.90;13.60;;;;;;;;;;5138175;27;20037;-74
2022/10/12 06:11:16;;;;;;;19.67;12.65;;;;;;;;;;5138037;27;20046;-74
2022/10/12 06:14:02;;;;;;;20.58;12.65;;;;;;;;;;5123647;27;20030;-74
2022/10/12 06:16:47;;;;;;;20.67;13.57;;;;;;;;;;5137143;27;20106;-74
2022/10/12 06:19:33;;;;;;;17.38;12.00;;;;;;;;;;5138073;27;20011;-75
2022/10/12 06:22:18;;;;;;;21.00;12.25;;;;;;;;;;5137396;27;20023;-75
2022/10/12 06:25:04;;;;;;;19.10;12.23;;;;;;;;;;5136707;27;20035;-75
2022/10/12 06:27:50;;;;;;;23.23;13.05;;;;;;;;;;5137008;27;20034;-75
2022/10/12 06:30:35;;;;;;;26.90;13.20;;;;;;;;;;5136851;27;20027;-74
2022/10/12 06:33:21;;;;;;;20.95;13.02;;;;;;;;;;5136615;27;20023;-75
2022/10/12 06:36:07;;;;;;;23.23;14.30;;;;;;;;;;5138049;27;20020;-74
2022/10/12 06:38:52;;;;;;;24.40;14.88;;;;;;;;;;5137585;27;20388;-74
2022/10/12 06:41:38;;;;;;;25.95;15.15;;;;;;;;;;5137102;27;20019;-74
2022/10/12 06:44:23;;;;;;;25.88;15.10;;;;;;;;;;5136697;27;20019;-74
2022/10/12 06:47:09;;;;;;;23.25;15.50;;;;;;;;;;5136702;27;20015;-74
2022/10/12 06:49:55;;;;;;;26.20;15.65;;;;;;;;;;5137206;27;20023;-75
2022/10/12 06:52:42;;;;;;;27.10;17.02;;;;;;;;;;5136010;27;20030;-75
2022/10/12 06:55:28;;;;;;;23.90;15.57;;;;;;;;;;5135792;27;20051;-75
2022/10/12 06:58:14;;;;;;;23.23;14.98;;;;;;;;;;5136223;27;20027;-74
2022/10/12 07:01:03;;;;;;;25.10;15.90;;;;;;;;;;5136521;27;20316;-74
2022/10/12 07:03:49;;;;;;;28.15;15.43;;;;;;;;;;5137026;27;20518;-74
2022/10/12 07:06:34;;;;;;;28.58;15.50;;;;;;;;;;5137276;27;20050;-75
2022/10/12 07:09:20;;;;;;;29.58;15.50;;;;;;;;;;5136436;27;20343;-75
2022/10/12 07:12:05;;;;;;;29.00;16.10;;;;;;;;;;5136912;27;20519;-74
2022/10/12 07:14:51;;;;;;;26.08;15.07;;;;;;;;;;5122614;27;20442;-76
2022/10/12 07:17:37;;;;;;;35.55;14.90;;;;;;;;;;5135677;27;20023;-77
2022/10/12 07:20:22;;;;;;;30.27;15.60;;;;;;;;;;5137024;27;20363;-77
2022/10/12 07:23:08;;;;;;;21.52;14.98;;;;;;;;;;5136190;27;20110;-76
2022/10/12 07:25:53;;;;;;;28.45;15.93;;;;;;;;;;5135897;27;20019;-78
2022/10/12 07:28:39;;;;;;;23.90;15.80;;;;;;;;;;5136634;27;20035;-75
2022/10/12 07:31:24;;;;;;;44.40;15.98;;;;;;;;;;5136603;27;20027;-75
2022/10/12 07:34:10;;;;;;;25.77;14.70;;;;;;;;;;5135885;27;20015;-76
2022/10/12 07:36:56;;;;;;;23.98;14.70;;;;;;;;;;5136007;27;20520;-76
2022/10/12 07:39:42;;;;;;;24.27;13.70;;;;;;;;;;5136116;27;20019;-76
2022/10/12 07:42:27;;;;;;;30.30;14.70;;;;;;;;;;5136138;27;20354;-74
2022/10/12 07:45:13;;;;;;;27.95;14.70;;;;;;;;;;5135303;27;20019;-76
2022/10/12 07:47:58;;;;;;;27.42;14.77;;;;;;;;;;5135775;27;20030;-77
2022/10/12 07:50:44;;;;;;;32.53;15.32;;;;;;;;;;5136133;27;20022;-76
2022/10/12 07:53:30;;;;;;;22.77;14.15;;;;;;;;;;5135124;27;20117;-74
2022/10/12 07:56:16;;;;;;;23.48;14.00;;;;;;;;;;5121947;27;20363;-74
2022/10/12 07:59:02;;;;;;;23.33;14.68;;;;;;;;;;5135576;27;20019;-76
2022/10/12 08:01:47;;;;;;;33.20;16.50;;;;;;;;;;5135505;27;20046;-75
2022/10/12 08:04:33;;;;;;;33.22;16.25;;;;;;;;;;5134781;27;20047;-75
2022/10/12 08:07:18;;;;;;;27.25;14.90;;;;;;;;;;5136293;27;20038;-75
2022/10/12 08:10:04;;;;;;;26.73;16.55;;;;;;;;;;5135551;27;20057;-75
2022/10/12 08:12:50;;;;;;;25.95;15.40;;;;;;;;;;5135832;27;20026;-75
2022/10/12 08:15:35;;;;;;;32.85;15.68;;;;;;;;;;5135707;27;20022;-75
2022/10/12 08:18:24;;;;;;;32.05;16.83;;;;;;;;;;5135370;27;20173;-76
2022/10/12 08:21:13;;;;;;;23.63;14.60;;;;;;;;;;5144993;27;20057;-74
2022/10/12 08:23:58;;;;;;;26.85;15.75;;;;;;;;;;5145019;27;20015;-75
2022/10/12 08:26:47;;;;;;;35.17;17.50;;;;;;;;;;5135645;27;20101;-75
2022/10/12 08:29:32;;;;;;;31.25;17.10;;;;;;;;;;5135149;27;20015;-75
2022/10/12 08:32:18;;;;;;;37.28;16.98;;;;;;;;;;5120692;27;20455;-75
2022/10/12 08:35:04;;;;;;;29.60;15.88;;;;;;;;;;5134135;27;20055;-76
2022/10/12 08:37:50;;;;;;;29.10;16.90;;;;;;;;;;5135399;27;20060;-75
2022/10/12 08:40:55;;;;;;;30.67;17.08;;;;;;;;;;5119748;27;20351;-74
2022/10/12 08:43:46;;;;;;;25.50;15.95;;;;;;;;;;5096814;27;20470;-74
2022/10/12 08:46:32;;;;;;;31.02;17.50;;;;;;;;;;5119979;27;20106;-74
2022/10/12 08:49:20;;;;;;;35.85;17.92;;;;;;;;;;5119189;27;20424;-75
2022/10/12 08:52:24;;;;;;;28.33;17.35;;;;;;;;;;5134888;27;20039;-74
2022/10/12 08:55:19;;;;;;;39.28;19.80;;;;;;;;;;5134224;27;20051;-75
2022/10/12 08:58:12;;;;;;;29.65;18.20;;;;;;;;;;5120477;27;20038;-74
2022/10/12 09:01:05;;;;;;;33.72;18.33;;;;;;;;;;5137904;27;20019;-73
2022/10/12 09:04:09;;;;;;;35.58;20.08;;;;;;;;;;5134336;27;20016;-75
2022/10/12 09:07:00;;;;;;;40.00;19.75;;;;;;;;;;5134782;27;20027;-74
2022/10/12 09:10:01;;;;;;;29.48;18.75;;;;;;;;;;5134312;27;20419;-74
2022/10/12 09:13:05;;;;;;;36.33;21.55;;;;;;;;;;5134855;27;20083;-75
2022/10/12 09:15:53;;;;;;;40.33;22.40;;;;;;;;;;5132955;27;20328;-74
2022/10/12 09:18:40;;;;;;;41.45;19.48;;;;;;;;;;5134688;27;20368;-75
2022/10/12 09:21:27;;;;;;;38.05;17.33;;;;;;;;;;5119996;28;20027;-75
2022/10/12 09:24:17;;;;;;;31.52;15.85;;;;;;;;;;5134233;28;20402;-75
2022/10/12 09:27:12;;;;;;;28.85;14.75;;;;;;;;;;5119562;28;20525;-75
2022/10/12 09:29:59;;;;;;;28.90;14.15;;;;;;;;;;5134135;28;20176;-75
2022/10/12 09:32:55;;;;;;;22.27;13.15;;;;;;;;;;5133540;28;20023;-74
2022/10/12 09:35:42;;;;;;;26.15;13.10;;;;;;;;;;5133904;28;20457;-75
2022/10/12 09:38:28;;;;;;;23.23;11.65;;;;;;;;;;5133557;28;20032;-75
2022/10/12 09:41:24;;;;;;;20.13;11.10;;;;;;;;;;5133667;28;20047;-74
2022/10/12 09:44:14;;;;;;;23.85;13.90;;;;;;;;;;5119314;28;20098;-74
2022/10/12 09:47:27;;;;;;;24.35;17.35;;;;;;;;;;5119557;28;20023;-75
2022/10/12 09:50:33;;;;;;;18.20;9.85;;;;;;;;;;5119072;28;20046;-74
2022/10/12 09:53:18;;;;;;;15.70;10.98;;;;;;;;;;5132688;28;20512;-75
2022/10/12 09:56:11;;;;;;;14.77;8.40;;;;;;;;;;5119364;28;20486;-74
2022/10/12 09:59:01;;;;;;;13.48;7.05;;;;;;;;;;5132721;28;20026;-75
2022/10/12 10:01:57;;;;;;;9.65;7.28;;;;;;;;;;5133054;28;20007;-75
2022/10/12 10:04:43;;;;;;;8.38;6.10;;;;;;;;;;5132555;28;20369;-75
2022/10/12 10:07:32;;;;;;;11.00;5.93;;;;;;;;;;5133700;28;20523;-75
2022/10/12 10:10:17;;;;;;;10.00;6.07;;;;;;;;;;5135066;28;20364;-75
2022/10/12 10:13:05;;;;;;;8.27;5.68;;;;;;;;;;5134088;28;20027;-74
2022/10/12 10:16:00;;;;;;;10.13;6.03;;;;;;;;;;5133549;28;20050;-74
2022/10/12 10:18:48;;;;;;;8.45;5.68;;;;;;;;;;5134221;28;20444;-74
2022/10/12 10:21:34;;;;;;;9.43;4.30;;;;;;;;;;5133255;28;20098;-74
2022/10/12 10:24:29;;;;;;;7.95;4.53;;;;;;;;;;5133830;28;20058;-74
2022/10/12 10:27:35;;;;;;;10.68;4.70;;;;;;;;;;5135138;27;20019;-74
2022/10/12 10:30:21;;;;;;;10.85;4.65;;;;;;;;;;5123866;27;20034;-74
2022/10/12 10:33:12;;;;;;;8.27;4.15;;;;;;;;;;5123343;27;20030;-75
2022/10/12 10:36:02;;;;;;;7.30;4.10;;;;;;;;;;5136257;27;20055;-74
2022/10/12 10:38:57;;;;;;;7.88;3.80;;;;;;;;;;5136421;27;20023;-74
2022/10/12 10:41:42;;;;;;;6.07;3.80;;;;;;;;;;5137678;27;20023;-75
2022/10/12 10:44:32;;;;;;;8.93;4.20;;;;;;;;;;5122342;27;20370;-75
2022/10/12 10:47:18;;;;;;;9.30;3.90;;;;;;;;;;5136173;27;20023;-75
2022/10/12 10:50:22;;;;;;;6.60;3.40;;;;;;;;;;5122531;27;20332;-74
2022/10/12 10:53:28;;;;;;;11.52;3.97;;;;;;;;;;5136448;27;20088;-75
2022/10/12 10:56:20;;;;;;;6.57;3.88;;;;;;;;;;5135765;27;20043;-75
2022/10/12 10:59:18;;;;;;;7.30;4.20;;;;;;;;;;5121790;27;20031;-74
2022/10/12 11:02:25;;;;;;;7.63;4.40;;;;;;;;;;5136412;27;20019;-74
2022/10/12 11:05:11;;;;;;;5.85;4.10;;;;;;;;;;5122013;27;20110;-74
2022/10/12 11:08:01;;;;;;;5.65;4.22;;;;;;;;;;5136902;27;20364;-74
2022/10/12 11:10:50;;;;;;;11.23;4.22;;;;;;;;;;5136189;27;20406;-75
2022/10/12 11:13:42;;;;;;;7.15;4.53;;;;;;;;;;5121724;27;20027;-74
2022/10/12 11:16:44;;;;;;;5.97;4.05;;;;;;;;;;5135781;27;20034;-73
2022/10/12 11:19:36;;;;;;;11.80;4.55;;;;;;;;;;5135013;27;20443;-75
2022/10/12 11:22:26;;;;;;;5.88;3.63;;;;;;;;;;5121725;27;20027;-75
2022/10/12 11:25:34;;;;;;;9.43;4.05;;;;;;;;;;5135929;27;20015;-75
2022/10/12 11:28:20;;;;;;;6.95;3.83;;;;;;;;;;5121363;27;20027;-75
2022/10/12 11:31:13;;;;;;;6.47;3.70;;;;;;;;;;5136529;27;20022;-75
2022/10/12 11:34:04;;;;;;;7.03;4.05;;;;;;;;;;5136364;27;20102;-75
2022/10/12 11:36:51;;;;;;;5.40;3.95;;;;;;;;;;5121414;27;20111;-75
2022/10/12 11:39:40;;;;;;;6.88;3.80;;;;;;;;;;5134919;27;20099;-75
2022/10/12 11:42:36;;;;;;;5.68;4.03;;;;;;;;;;5135776;27;20072;-76
2022/10/12 11:45:25;;;;;;;11.57;4.35;;;;;;;;;;5134657;27;20023;-74
2022/10/12 11:48:21;;;;;;;6.05;4.10;;;;;;;;;;5135153;27;20035;-75
2022/10/12 11:51:07;;;;;;;6.45;3.60;;;;;;;;;;5136118;27;20034;-74
2022/10/12 11:53:56;;;;;;;6.20;4.05;;;;;;;;;;5121402;27;20026;-75
2022/10/12 11:56:44;;;;;;;7.20;3.85;;;;;;;;;;5136204;27;20074;-74
2022/10/12 11:59:33;;;;;;;6.75;3.58;;;;;;;;;;5136003;27;20038;-75
2022/10/12 12:02:27;;;;;;;5.50;3.78;;;;;;;;;;5134451;27;20007;-76
2022/10/12 12:05:14;;;;;;;6.55;3.50;;;;;;;;;;5135705;27;20027;-75
2022/10/12 12:08:00;;;;;;;8.48;3.78;;;;;;;;;;5135656;27;20019;-74
2022/10/12 12:11:01;;;;;;;5.60;3.83;;;;;;;;;;5135280;27;20027;-75
2022/10/12 12:13:47;;;;;;;7.78;4.10;;;;;;;;;;5120868;27;20026;-74
2022/10/12 12:16:41;;;;;;;7.97;3.53;;;;;;;;;;5134765;27;20427;-73
2022/10/12 12:19:37;;;;;;;4.47;3.58;;;;;;;;;;5134405;27;20019;-73
2022/10/12 12:22:28;;;;;;;5.75;3.50;;;;;;;;;;5135172;27;20034;-74
2022/10/12 12:25:19;;;;;;;6.13;3.60;;;;;;;;;;5135406;27;20015;-75
2022/10/12 12:28:16;;;;;;;7.72;3.10;;;;;;;;;;5134769;27;20019;-76
2022/10/12 12:31:04;;;;;;;6.28;3.35;;;;;;;;;;5135047;27;20031;-75
2022/10/12 12:34:02;;;;;;;6.80;3.50;;;;;;;;;;5134621;27;20059;-75
2022/10/12 12:36:50;;;;;;;8.57;3.42;;;;;;;;;;5134450;27;20449;-75
2022/10/12 12:39:43;;;;;;;3.78;2.80;;;;;;;;;;5135351;27;20054;-75
2022/10/12 12:42:33;;;;;;;4.13;3.08;;;;;;;;;;5134208;27;20019;-75
2022/10/12 12:45:38;;;;;;;6.30;3.13;;;;;;;;;;5134303;27;20019;-75
2022/10/12 12:48:39;;;;;;;5.15;3.30;;;;;;;;;;5134265;27;20023;-74
2022/10/12 12:51:35;;;;;;;5.47;3.50;;;;;;;;;;5134374;27;20022;-74
2022/10/12 12:54:21;;;;;;;6.50;3.03;;;;;;;;;;5119514;27;20079;-77
2022/10/12 12:57:07;;;;;;;6.03;3.15;;;;;;;;;;5135045;27;20159;-77
2022/10/12 13:00:13;;;;;;;6.90;3.50;;;;;;;;;;5135253;27;20055;-76
2022/10/12 13:02:58;;;;;;;5.85;3.53;;;;;;;;;;5131655;27;20050;-75
2022/10/12 13:05:59;;;;;;;8.63;3.92;;;;;;;;;;5135367;27;20077;-75
2022/10/12 13:08:56;;;;;;;6.07;4.43;;;;;;;;;;5134620;27;20015;-74
2022/10/12 13:11:56;;;;;;;4.53;3.15;;;;;;;;;;5133967;27;20030;-75
2022/10/12 13:14:41;;;;;;;7.28;3.90;;;;;;;;;;5133362;27;20058;-76
2022/10/12 13:17:39;;;;;;;5.65;3.80;;;;;;;;;;5120150;27;20038;-75
2022/10/12 13:20:27;;;;;;;11.25;3.88;;;;;;;;;;5134700;27;20102;-74
2022/10/12 13:23:21;;;;;;;7.25;3.70;;;;;;;;;;5119337;27;20015;-75
2022/10/12 13:26:08;;;;;;;7.97;3.53;;;;;;;;;;5135124;27;20340;-73
2022/10/12 13:28:59;;;;;;;7.45;3.60;;;;;;;;;;5135556;28;20023;-74
2022/10/12 13:31:46;;;;;;;9.20;3.72;;;;;;;;;;5133418;28;20022;-75
2022/10/12 13:34:38;;;;;;;9.75;4.15;;;;;;;;;;5119625;28;20019;-76
2022/10/12 13:37:28;;;;;;;50.63;8.98;;;;;;;;;;5135056;28;20388;-77
2022/10/12 13:40:27;;;;;;;6.13;3.78;;;;;;;;;;5119227;28;20030;-75
2022/10/12 13:43:17;;;;;;;8.77;3.90;;;;;;;;;;5133155;28;20023;-74
2022/10/12 13:46:03;;;;;;;9.50;4.30;;;;;;;;;;5133262;28;20019;-75
2022/10/12 13:48:49;;;;;;;9.02;4.07;;;;;;;;;;5133532;28;20023;-75
2022/10/12 13:51:34;;;;;;;5.20;4.00;;;;;;;;;;5134288;28;20023;-75
2022/10/12 13:54:33;;;;;;;7.43;4.13;;;;;;;;;;5133921;28;20043;-75
2022/10/12 13:57:22;;;;;;;7.43;4.22;;;;;;;;;;5119271;28;20367;-75
2022/10/12 14:00:16;;;;;;;7.55;4.05;;;;;;;;;;5134121;28;20484;-75
2022/10/12 14:03:05;;;;;;;9.95;4.43;;;;;;;;;;5137296;27;20431;-74
2022/10/12 14:05:52;;;;;;;6.57;4.20;;;;;;;;;;5137671;27;20114;-72
2022/10/12 14:08:38;;;;;;;8.15;4.20;;;;;;;;;;5138424;27;20103;-72
2022/10/12 14:11:25;;;;;;;7.65;4.55;;;;;;;;;;5138335;27;20414;-72
2022/10/12 14:14:24;;;;;;;8.98;4.07;;;;;;;;;;5137269;27;20023;-76
2022/10/12 14:17:16;;;;;;;6.70;4.60;;;;;;;;;;5138421;27;20027;-75
2022/10/12 14:20:21;;;;;;;7.75;4.70;;;;;;;;;;5138034;27;20022;-78
2022/10/12 14:23:12;;;;;;;7.13;5.00;;;;;;;;;;5140058;27;20026;-75
2022/10/12 14:25:58;;;;;;;26.92;20.90;;;;;;;;;;5123801;27;20015;-75
2022/10/12 14:28:43;;;;;;;16.77;7.25;;;;;;;;;;5124643;27;20026;-74
2022/10/12 14:31:50;;;;;;;7.05;5.57;;;;;;;;;;5138070;27;20064;-74
2022/10/12 14:34:39;;;;;;;9.80;5.43;;;;;;;;;;5136585;27;20042;-74
2022/10/12 14:37:28;;;;;;;7.38;5.55;;;;;;;;;;5122571;27;20103;-74
2022/10/12 14:40:24;;;;;;;14.27;6.05;;;;;;;;;;5122652;27;20023;-74
2022/10/12 14:43:13;;;;;;;9.48;5.88;;;;;;;;;;5122597;27;20427;-77
2022/10/12 14:45:59;;;;;;;11.10;5.88;;;;;;;;;;5137664;27;20117;-74
2022/10/12 14:48:44;;;;;;;7.90;5.22;;;;;;;;;;5123180;27;20106;-75
2022/10/12 14:51:30;;;;;;;10.30;5.82;;;;;;;;;;5136146;27;20359;-74
2022/10/12 14:54:15;;;;;;;7.78;5.68;;;;;;;;;;5136803;27;20367;-74
2022/10/12 14:57:10;;;;;;;10.98;5.35;;;;;;;;;;5137122;27;20019;-76
2022/10/12 14:59:56;;;;;;;12.57;5.72;;;;;;;;;;5136580;27;20023;-74
2022/10/12 15:02:42;;;;;;;8.20;6.30;;;;;;;;;;5136196;27;20027;-74
2022/10/12 15:05:30;;;;;;;10.80;5.72;;;;;;;;;;5136822;27;20015;-75
2022/10/12 15:08:16;;;;;;;11.02;6.20;;;;;;;;;;5135644;27;20401;-74
2022/10/12 15:11:01;;;;;;;18.55;6.32;;;;;;;;;;5137395;27;20038;-75
2022/10/12 15:13:47;;;;;;;11.18;5.80;;;;;;;;;;5135707;27;20044;-74
2022/10/12 15:16:33;;;;;;;17.38;6.72;;;;;;;;;;5136575;27;20102;-74
2022/10/12 15:19:18;;;;;;;12.38;6.80;;;;;;;;;;5136191;27;20030;-73
2022/10/12 15:22:04;;;;;;;12.18;6.45;;;;;;;;;;5136609;27;20011;-75
2022/10/12 15:24:50;;;;;;;11.38;6.78;;;;;;;;;;5136866;27;20160;-75
2022/10/12 15:27:35;;;;;;;12.25;6.40;;;;;;;;;;5135140;27;20015;-74
2022/10/12 15:30:21;;;;;;;12.32;6.50;;;;;;;;;;5136107;27;20397;-75
2022/10/12 15:33:08;;;;;;;14.95;6.93;;;;;;;;;;5136103;27;20031;-74
2022/10/12 15:35:54;;;;;;;12.27;6.93;;;;;;;;;;5121328;27;20030;-75
2022/10/12 15:38:39;;;;;;;12.55;7.15;;;;;;;;;;5121166;27;20019;-75
2022/10/12 15:41:25;;;;;;;10.70;6.95;;;;;;;;;;5122812;27;20015;-75
2022/10/12 15:44:11;;;;;;;12.98;7.53;;;;;;;;;;5136234;27;20015;-74
2022/10/12 15:46:59;;;;;;;12.60;7.50;;;;;;;;;;5136290;27;20023;-75
2022/10/12 15:49:45;;;;;;;15.73;7.80;;;;;;;;;;5135943;27;20049;-76
2022/10/12 15:52:30;;;;;;;17.00;8.07;;;;;;;;;;5136084;27;20055;-75
2022/10/12 15:55:19;;;;;;;15.00;8.43;;;;;;;;;;5135299;27;20055;-75
2022/10/12 15:58:04;;;;;;;13.18;7.25;;;;;;;;;;5121398;27;20026;-75
2022/10/12 16:00:50;;;;;;;16.50;9.10;;;;;;;;;;5136304;27;20026;-75
2022/10/12 16:03:35;;;;;;;27.42;13.93;;;;;;;;;;5136564;27;20019;-75
2022/10/12 16:06:22;;;;;;;15.80;8.40;;;;;;;;;;5135664;27;20026;-75
2022/10/12 16:09:08;;;;;;;20.75;9.77;;;;;;;;;;5135320;27;20023;-75
2022/10/12 16:11:53;;;;;;;19.13;8.90;;;;;;;;;;5135874;27;20115;-75
2022/10/12 16:14:39;;;;;;;19.77;9.52;;;;;;;;;;5135760;27;20023;-74
2022/10/12 16:17:25;;;;;;;12.77;7.93;;;;;;;;;;5134734;27;20119;-73
2022/10/12 16:20:11;;;;;;;17.42;8.57;;;;;;;;;;5135794;27;20015;-74
2022/10/12 16:22:57;;;;;;;18.92;8.30;;;;;;;;;;5135290;27;20435;-75
2022/10/12 16:25:42;;;;;;;18.40;9.60;;;;;;;;;;5135338;27;20080;-76
2022/10/12 16:28:28;;;;;;;18.05;8.50;;;;;;;;;;5134809;27;20351;-75
2022/10/12 16:31:16;;;;;;;14.70;8.05;;;;;;;;;;5134629;27;20428;-75
2022/10/12 16:34:02;;;;;;;18.75;8.55;;;;;;;;;;5134534;27;20110;-75